Time;durP1;ratioP1;P1;durP2;ratioP2;P2;SDS_P1;SDS_P2;PMS_P1;PMS_P2;Temp;Humidity;BMP_temperature;BMP_pressure;BME280_temperature;BME280_humidity;BME280_pressure;Samples;Min_cycle;Max_cycle;Signal;HPM_P1;HPM_P2
2023/11/23 00:02:05;;;;;;;29.13;10.05;;;2.50;99.90;;;;;;4755573;29;20046;-73
2023/11/23 00:04:34;;;;;;;30.35;10.40;;;2.40;99.90;;;;;;4773338;29;22171;-72
2023/11/23 00:07:03;;;;;;;29.27;11.43;;;2.30;99.90;;;;;;4772756;29;20081;-72
2023/11/23 00:09:31;;;;;;;33.75;10.75;;;2.40;99.90;;;;;;4777670;29;20693;-71
2023/11/23 00:11:59;;;;;;;29.48;10.85;;;2.40;99.90;;;;;;4778708;29;20194;-72
2023/11/23 00:14:30;;;;;;;30.58;11.60;;;2.30;99.90;;;;;;4757092;29;20506;-72
2023/11/23 00:16:59;;;;;;;28.17;9.93;;;2.30;99.90;;;;;;4788983;29;20565;-72
2023/11/23 00:19:29;;;;;;;27.63;10.73;;;2.30;99.90;;;;;;4756490;29;20792;-73
2023/11/23 00:21:57;;;;;;;26.25;10.20;;;2.20;99.90;;;;;;4772858;29;20050;-72
2023/11/23 00:24:26;;;;;;;23.23;9.25;;;2.30;99.90;;;;;;4751077;29;20779;-72
2023/11/23 00:26:54;;;;;;;28.70;11.00;;;2.10;99.90;;;;;;4762746;29;20598;-71
2023/11/23 00:29:22;;;;;;;29.65;10.48;;;2.20;99.90;;;;;;4792579;29;20058;-71
2023/11/23 00:31:51;;;;;;;29.67;11.18;;;2.10;99.90;;;;;;4758425;29;20586;-72
2023/11/23 00:34:20;;;;;;;35.08;11.88;;;2.00;99.90;;;;;;4759459;29;20054;-71
2023/11/23 00:36:50;;;;;;;33.33;12.82;;;2.10;99.90;;;;;;4756970;29;20059;-73
2023/11/23 00:39:18;;;;;;;29.98;11.25;;;2.20;99.90;;;;;;4773850;29;20093;-73
2023/11/23 00:41:47;;;;;;;32.60;12.38;;;2.00;99.90;;;;;;4772864;29;20223;-72
2023/11/23 00:44:17;;;;;;;28.30;11.57;;;2.10;99.90;;;;;;4772101;29;20675;-73
2023/11/23 00:46:46;;;;;;;32.67;9.77;;;2.10;99.90;;;;;;4750986;29;20061;-72
2023/11/23 00:49:16;;;;;;;27.15;8.95;;;2.10;99.90;;;;;;4787015;29;20038;-72
2023/11/23 00:51:45;;;;;;;32.00;11.40;;;2.10;99.90;;;;;;4755238;29;20058;-73
2023/11/23 00:54:14;;;;;;;28.02;10.07;;;2.10;99.90;;;;;;4752981;29;20050;-72
2023/11/23 00:56:43;;;;;;;26.92;9.43;;;2.10;99.90;;;;;;4753815;29;20068;-72
2023/11/23 00:59:12;;;;;;;31.02;10.15;;;2.00;99.90;;;;;;4773424;29;20054;-73
2023/11/23 01:01:40;;;;;;;30.20;11.15;;;2.00;99.90;;;;;;4779835;29;20166;-72
2023/11/23 01:04:09;;;;;;;30.45;11.48;;;1.90;99.90;;;;;;4752702;29;20051;-74
2023/11/23 01:06:37;;;;;;;28.30;10.68;;;1.90;99.90;;;;;;4761924;29;20058;-73
2023/11/23 01:09:06;;;;;;;31.67;11.38;;;1.90;99.90;;;;;;4774609;29;20057;-72
2023/11/23 01:11:36;;;;;;;30.80;11.13;;;1.80;99.90;;;;;;4753384;29;20065;-73
2023/11/23 01:14:04;;;;;;;31.25;10.45;;;1.80;99.90;;;;;;4775085;29;20850;-75
2023/11/23 01:16:33;;;;;;;27.52;10.77;;;1.90;99.90;;;;;;4770020;29;20057;-72
2023/11/23 01:19:01;;;;;;;27.52;10.18;;;1.90;99.90;;;;;;4758339;29;20058;-72
2023/11/23 01:21:30;;;;;;;26.50;9.68;;;1.80;99.90;;;;;;4759560;29;20058;-72
2023/11/23 01:23:58;;;;;;;35.38;11.70;;;1.90;99.90;;;;;;4771173;29;20068;-74
2023/11/23 01:26:26;;;;;;;29.35;11.45;;;1.80;99.90;;;;;;4773478;29;20491;-73
2023/11/23 01:28:56;;;;;;;32.75;12.00;;;1.90;99.90;;;;;;4778698;29;20043;-74
2023/11/23 01:31:25;;;;;;;29.98;10.82;;;1.80;99.90;;;;;;4754950;29;22329;-71
2023/11/23 01:33:53;;;;;;;28.90;10.82;;;1.70;99.90;;;;;;4751189;29;20070;-72
2023/11/23 01:36:22;;;;;;;29.77;11.73;;;1.80;99.90;;;;;;4766643;29;20050;-73
2023/11/23 01:38:50;;;;;;;29.92;11.50;;;1.80;99.90;;;;;;4772938;29;20218;-72
2023/11/23 01:41:18;;;;;;;31.50;11.40;;;1.80;99.90;;;;;;4773125;29;20676;-71
2023/11/23 01:43:47;;;;;;;30.48;11.80;;;1.80;99.90;;;;;;4774123;29;20063;-71
2023/11/23 01:46:16;;;;;;;34.00;12.07;;;1.80;99.90;;;;;;4769432;29;20072;-73
2023/11/23 01:48:45;;;;;;;32.20;11.82;;;1.80;99.90;;;;;;4769341;29;20091;-73
2023/11/23 01:51:15;;;;;;;31.90;12.13;;;1.70;99.90;;;;;;4753349;29;22205;-73
2023/11/23 01:53:44;;;;;;;30.15;11.63;;;1.70;99.90;;;;;;4771594;29;20062;-72
2023/11/23 01:56:13;;;;;;;33.30;10.40;;;1.50;99.90;;;;;;4749020;29;22912;-72
2023/11/23 01:58:42;;;;;;;28.33;10.43;;;1.60;99.90;;;;;;4754271;29;20062;-73
2023/11/23 02:01:10;;;;;;;30.23;10.23;;;1.50;99.90;;;;;;4774154;29;20113;-72
2023/11/23 02:03:40;;;;;;;35.25;10.75;;;1.50;99.90;;;;;;4773877;29;20140;-75
2023/11/23 02:06:09;;;;;;;25.77;10.00;;;1.60;99.90;;;;;;4773815;29;20051;-74
2023/11/23 02:08:37;;;;;;;24.75;9.40;;;1.60;99.90;;;;;;4780745;29;20058;-74
2023/11/23 02:11:06;;;;;;;27.60;9.98;;;1.60;99.90;;;;;;4790975;29;20051;-74
2023/11/23 02:13:34;;;;;;;34.47;12.10;;;1.60;99.90;;;;;;4769240;29;20721;-75
2023/11/23 02:16:03;;;;;;;33.10;10.80;;;1.60;99.90;;;;;;4756355;29;20073;-75
2023/11/23 02:18:36;;;;;;;31.40;11.35;;;1.60;99.90;;;;;;4770030;29;20952;-75
2023/11/23 02:21:07;;;;;;;32.28;11.32;;;1.60;99.90;;;;;;4770248;29;20062;-74
2023/11/23 02:23:36;;;;;;;25.23;9.77;;;1.60;99.90;;;;;;4770499;29;20051;-74
2023/11/23 02:26:06;;;;;;;29.20;11.07;;;1.60;99.90;;;;;;4756382;29;20094;-75
2023/11/23 02:28:34;;;;;;;28.15;10.25;;;1.60;99.90;;;;;;4772583;29;22602;-74
2023/11/23 02:31:03;;;;;;;30.60;11.60;;;1.60;99.90;;;;;;4755490;29;22674;-74
2023/11/23 02:33:31;;;;;;;34.40;12.18;;;1.50;99.90;;;;;;4755787;29;20058;-75
2023/11/23 02:36:00;;;;;;;25.58;10.65;;;1.60;99.90;;;;;;4772473;29;20093;-74
2023/11/23 02:38:29;;;;;;;27.75;10.88;;;1.60;99.90;;;;;;4767698;29;20054;-75
2023/11/23 02:40:58;;;;;;;28.92;11.70;;;1.60;99.90;;;;;;4771224;29;20428;-75
2023/11/23 02:43:28;;;;;;;32.63;12.13;;;1.50;99.90;;;;;;4769286;29;20059;-74
2023/11/23 02:45:57;;;;;;;30.98;11.30;;;1.50;99.90;;;;;;4769851;29;20837;-75
2023/11/23 02:48:25;;;;;;;30.92;12.13;;;1.50;99.90;;;;;;4757639;29;20088;-75
2023/11/23 02:50:53;;;;;;;35.13;11.15;;;1.40;99.90;;;;;;4772415;29;20066;-74
2023/11/23 02:53:30;;;;;;;38.40;12.73;;;1.40;99.90;;;;;;4770495;29;20412;-75
2023/11/23 02:55:58;;;;;;;32.70;11.45;;;1.40;99.90;;;;;;4768591;29;20538;-74
2023/11/23 02:58:29;;;;;;;30.40;12.45;;;1.40;99.90;;;;;;4783186;29;20061;-75
2023/11/23 03:00:57;;;;;;;29.95;11.18;;;1.40;99.90;;;;;;4771030;29;22143;-75
2023/11/23 03:03:26;;;;;;;32.85;11.27;;;1.40;99.90;;;;;;4750958;29;20169;-74
2023/11/23 03:05:54;;;;;;;34.65;11.55;;;1.40;99.90;;;;;;4772782;29;20054;-75
2023/11/23 03:08:22;;;;;;;31.00;11.32;;;1.40;99.90;;;;;;4769674;29;20096;-74
2023/11/23 03:10:52;;;;;;;36.67;11.65;;;1.40;99.90;;;;;;4768403;29;20186;-74
2023/11/23 03:13:22;;;;;;;33.95;12.05;;;1.40;99.90;;;;;;4789038;29;20055;-72
2023/11/23 03:15:52;;;;;;;33.55;12.32;;;1.40;99.90;;;;;;4771091;29;20727;-72
2023/11/23 03:18:20;;;;;;;31.02;10.65;;;1.40;99.90;;;;;;4757115;29;22242;-73
2023/11/23 03:20:49;;;;;;;30.30;11.63;;;1.40;99.90;;;;;;4770599;29;20054;-73
2023/11/23 03:23:18;;;;;;;36.15;12.90;;;1.40;99.90;;;;;;4771558;29;20115;-72
2023/11/23 03:25:46;;;;;;;47.22;16.48;;;1.40;99.90;;;;;;4771522;29;22337;-73
2023/11/23 03:28:15;;;;;;;37.08;12.65;;;1.40;99.90;;;;;;4786373;29;21092;-73
2023/11/23 03:30:43;;;;;;;27.48;10.23;;;1.30;99.90;;;;;;4770259;29;20058;-73
2023/11/23 03:33:14;;;;;;;32.70;11.75;;;1.40;99.90;;;;;;4790456;29;20078;-72
2023/11/23 03:35:43;;;;;;;27.40;9.93;;;1.30;99.90;;;;;;4752630;29;20055;-72
2023/11/23 03:38:14;;;;;;;37.13;11.95;;;1.30;99.90;;;;;;4772059;29;20046;-73
2023/11/23 03:40:45;;;;;;;30.30;10.25;;;1.40;99.90;;;;;;4797704;29;20605;-72
2023/11/23 03:43:14;;;;;;;29.05;10.23;;;1.40;99.90;;;;;;4770298;29;20413;-73
2023/11/23 03:45:43;;;;;;;28.58;10.82;;;1.30;99.90;;;;;;4754043;29;20069;-73
2023/11/23 03:48:12;;;;;;;28.65;9.73;;;1.30;99.90;;;;;;4769643;29;20145;-73
2023/11/23 03:50:41;;;;;;;35.63;11.30;;;1.40;99.90;;;;;;4755270;29;20489;-74
2023/11/23 03:53:09;;;;;;;29.15;10.30;;;1.30;99.90;;;;;;4769490;29;20574;-73
2023/11/23 03:55:38;;;;;;;26.40;9.55;;;1.30;99.90;;;;;;4770631;29;20050;-73
2023/11/23 03:58:06;;;;;;;26.63;10.38;;;1.20;99.90;;;;;;4754104;29;20103;-73
2023/11/23 04:00:35;;;;;;;32.70;11.05;;;1.30;99.90;;;;;;4772573;29;20714;-73
2023/11/23 04:03:05;;;;;;;25.40;10.68;;;1.30;99.90;;;;;;4755457;29;20061;-73
2023/11/23 04:05:37;;;;;;;26.98;9.80;;;1.30;99.90;;;;;;4754449;29;20102;-72
2023/11/23 04:08:05;;;;;;;30.63;10.98;;;1.30;99.90;;;;;;4771693;29;20050;-73
2023/11/23 04:10:34;;;;;;;30.92;10.88;;;1.30;99.90;;;;;;4770922;29;20061;-74
2023/11/23 04:13:03;;;;;;;32.28;10.88;;;1.20;99.90;;;;;;4769564;29;20055;-73
2023/11/23 04:15:31;;;;;;;28.55;9.85;;;1.20;99.90;;;;;;4772695;29;20054;-73
2023/11/23 04:17:59;;;;;;;29.20;9.93;;;1.30;99.90;;;;;;4774034;29;21224;-74
2023/11/23 04:20:28;;;;;;;28.08;10.65;;;1.20;99.90;;;;;;4770550;29;21059;-72
2023/11/23 04:23:02;;;;;;;31.33;10.38;;;1.10;99.90;;;;;;4757076;29;20837;-75
2023/11/23 04:25:31;;;;;;;29.17;10.02;;;1.20;99.90;;;;;;4815748;29;22050;-75
2023/11/23 04:28:09;;;;;;;31.45;10.30;;;2.00;99.90;;;;;;4819494;29;20054;-75
2023/11/23 04:30:38;;;;;;;28.45;10.65;;;0.90;99.90;;;;;;4825794;29;20046;-74
2023/11/23 04:33:07;;;;;;;29.83;10.40;;;1.30;99.90;;;;;;4824709;29;20865;-76
2023/11/23 04:35:36;;;;;;;29.00;10.35;;;1.20;99.90;;;;;;4790611;29;20068;-75
2023/11/23 04:38:07;;;;;;;30.65;10.25;;;1.10;99.90;;;;;;4827206;29;20026;-75
2023/11/23 04:40:37;;;;;;;29.98;10.38;;;1.50;99.90;;;;;;4801952;29;20049;-75
2023/11/23 04:43:08;;;;;;;27.25;9.98;;;0.80;99.90;;;;;;4816791;29;20042;-75
2023/11/23 04:45:37;;;;;;;33.28;12.00;;;1.10;99.90;;;;;;4823509;29;20046;-75
2023/11/23 04:48:07;;;;;;;41.70;14.38;;;1.00;99.90;;;;;;4818565;29;20046;-75
2023/11/23 04:50:36;;;;;;;36.53;13.55;;;-0.30;99.90;;;;;;4826184;29;20085;-75
2023/11/23 04:53:07;;;;;;;74.20;21.33;;;2.00;99.90;;;;;;4817281;29;20081;-74
2023/11/23 04:55:38;;;;;;;82.07;25.20;;;1.10;99.90;;;;;;4801652;29;20051;-75
2023/11/23 04:58:12;;;;;;;62.38;20.27;;;0.30;99.90;;;;;;4825362;29;20050;-75
2023/11/23 05:00:44;;;;;;;50.65;16.35;;;1.10;99.90;;;;;;4816443;29;20404;-75
2023/11/23 05:03:13;;;;;;;48.85;16.77;;;1.10;99.90;;;;;;4810893;29;20065;-76
2023/11/23 05:05:42;;;;;;;39.08;13.82;;;1.00;99.90;;;;;;4808035;29;20038;-74
2023/11/23 05:08:13;;;;;;;34.20;12.95;;;1.50;99.90;;;;;;4800928;29;20334;-77
2023/11/23 05:10:45;;;;;;;34.83;13.15;;;1.10;99.90;;;;;;4819668;29;20042;-74
2023/11/23 05:13:14;;;;;;;34.13;12.55;;;1.00;99.90;;;;;;4820927;29;20110;-75
2023/11/23 05:15:43;;;;;;;36.78;11.80;;;1.30;99.90;;;;;;4834840;29;20502;-75
2023/11/23 05:18:13;;;;;;;36.13;11.95;;;1.70;99.90;;;;;;4801420;29;20118;-75
2023/11/23 05:20:43;;;;;;;30.75;11.57;;;1.00;99.90;;;;;;4821222;29;20073;-75
2023/11/23 05:23:13;;;;;;;29.58;12.75;;;1.10;99.90;;;;;;4804884;29;20626;-76
2023/11/23 05:25:42;;;;;;;103.97;42.45;;;1.00;99.90;;;;;;4818494;29;20050;-75
2023/11/23 05:28:12;;;;;;;40.40;18.05;;;0.90;99.90;;;;;;4818406;29;20046;-76
2023/11/23 05:30:42;;;;;;;114.38;38.13;;;1.00;99.90;;;;;;4796796;29;20050;-74
2023/11/23 05:33:10;;;;;;;75.25;29.17;;;1.90;99.90;;;;;;4808253;29;20049;-73
2023/11/23 05:35:39;;;;;;;125.88;52.08;;;0.80;99.90;;;;;;4771509;29;20058;-73
2023/11/23 05:38:07;;;;;;;36.72;15.35;;;0.90;99.90;;;;;;4758229;29;20058;-73
2023/11/23 05:40:37;;;;;;;33.22;12.35;;;0.90;99.90;;;;;;4773242;29;20065;-73
2023/11/23 05:43:06;;;;;;;29.50;10.63;;;1.10;99.90;;;;;;4784135;29;20531;-73
2023/11/23 05:45:35;;;;;;;31.40;11.00;;;0.90;99.90;;;;;;4792819;29;20073;-73
2023/11/23 05:48:05;;;;;;;28.55;11.50;;;1.00;99.90;;;;;;4775153;29;20058;-73
2023/11/23 05:50:34;;;;;;;34.08;11.55;;;1.00;99.90;;;;;;4786249;29;20062;-75
2023/11/23 05:53:03;;;;;;;26.15;9.63;;;0.90;99.90;;;;;;4773367;29;20560;-74
2023/11/23 05:55:31;;;;;;;27.95;10.75;;;0.80;99.90;;;;;;4783136;29;20488;-72
2023/11/23 05:58:01;;;;;;;27.50;11.15;;;0.80;99.90;;;;;;4770541;29;20391;-72
2023/11/23 06:00:31;;;;;;;34.47;11.80;;;1.00;99.90;;;;;;4773473;29;20585;-74
2023/11/23 06:02:59;;;;;;;29.35;11.20;;;1.00;99.90;;;;;;4790329;29;20435;-74
2023/11/23 06:05:28;;;;;;;30.38;10.93;;;1.00;99.90;;;;;;4771100;29;20055;-73
2023/11/23 06:07:59;;;;;;;30.35;11.00;;;1.00;99.90;;;;;;4771567;29;20847;-73
2023/11/23 06:10:28;;;;;;;29.55;9.90;;;1.00;99.90;;;;;;4772973;29;22127;-73
2023/11/23 06:12:56;;;;;;;31.58;12.07;;;0.80;99.90;;;;;;4755024;29;20058;-75
2023/11/23 06:15:26;;;;;;;36.42;11.57;;;0.90;99.90;;;;;;4771241;29;20058;-77
2023/11/23 06:17:55;;;;;;;47.03;15.10;;;0.80;99.90;;;;;;4784509;29;20092;-74
2023/11/23 06:20:40;;;;;;;37.22;12.75;;;0.80;99.90;;;;;;4779634;29;20558;-75
2023/11/23 06:23:10;;;;;;;32.30;10.85;;;0.90;99.90;;;;;;4776940;29;20106;-75
2023/11/23 06:25:39;;;;;;;34.47;12.00;;;0.90;99.90;;;;;;4771001;29;20059;-74
2023/11/23 06:28:07;;;;;;;26.15;9.00;;;1.00;99.90;;;;;;4751453;29;20062;-76
2023/11/23 06:30:45;;;;;;;32.17;10.68;;;0.90;99.90;;;;;;4771644;29;20835;-75
2023/11/23 06:33:14;;;;;;;33.63;11.95;;;0.90;99.90;;;;;;4751731;29;20055;-75
2023/11/23 06:35:43;;;;;;;31.25;12.20;;;0.80;99.90;;;;;;4755804;29;22851;-75
2023/11/23 06:38:12;;;;;;;37.13;11.73;;;0.80;99.90;;;;;;4766551;29;20042;-74
2023/11/23 06:40:41;;;;;;;33.72;11.40;;;0.80;99.90;;;;;;4783953;29;20046;-75
2023/11/23 06:43:09;;;;;;;34.83;11.40;;;0.80;99.90;;;;;;4784749;29;20137;-78
2023/11/23 06:45:38;;;;;;;31.40;10.60;;;0.90;99.90;;;;;;4768467;29;20121;-77
2023/11/23 06:48:09;;;;;;;29.52;10.07;;;1.00;99.90;;;;;;4757808;29;20077;-78
2023/11/23 06:50:38;;;;;;;33.53;10.70;;;1.00;99.90;;;;;;4796101;29;20062;-77
2023/11/23 06:53:06;;;;;;;32.30;10.00;;;1.10;99.90;;;;;;4801186;29;20063;-78
2023/11/23 06:55:37;;;;;;;33.17;10.68;;;1.20;99.90;;;;;;4778794;29;20174;-78
2023/11/23 06:58:06;;;;;;;30.73;10.13;;;1.10;99.90;;;;;;4788474;29;20054;-79
2023/11/23 07:00:38;;;;;;;31.33;12.00;;;-0.10;99.90;;;;;;4784791;29;20058;-78
2023/11/23 07:03:10;;;;;;;31.23;10.05;;;1.40;99.90;;;;;;4792040;29;20140;-77
2023/11/23 07:05:39;;;;;;;35.42;12.20;;;1.20;99.90;;;;;;4776837;29;20212;-78
2023/11/23 07:08:09;;;;;;;33.97;11.05;;;1.20;99.90;;;;;;4772567;29;20057;-78
2023/11/23 07:10:40;;;;;;;37.78;15.02;;;1.20;99.90;;;;;;4789728;29;20062;-78
2023/11/23 07:13:10;;;;;;;36.90;12.82;;;0.90;99.90;;;;;;4782333;29;20094;-79
2023/11/23 07:15:41;;;;;;;39.78;12.73;;;1.60;99.90;;;;;;4779200;29;20126;-78
2023/11/23 07:18:13;;;;;;;37.85;14.00;;;1.60;99.90;;;;;;4802963;29;20185;-79
2023/11/23 07:20:43;;;;;;;39.80;13.27;;;1.30;99.90;;;;;;4786736;29;20106;-78
2023/11/23 07:23:12;;;;;;;33.35;12.02;;;2.50;99.90;;;;;;4781332;29;20146;-78
2023/11/23 07:25:44;;;;;;;36.22;13.07;;;1.50;99.90;;;;;;4783813;29;20404;-78
2023/11/23 07:28:13;;;;;;;38.55;13.85;;;3.00;99.90;;;;;;4774585;29;20066;-77
2023/11/23 07:30:42;;;;;;;40.05;14.18;;;1.60;99.90;;;;;;4790655;29;20129;-78
2023/11/23 07:33:13;;;;;;;36.80;12.43;;;1.50;99.90;;;;;;4782353;29;20062;-78
2023/11/23 07:35:46;;;;;;;70.63;21.92;;;1.80;99.90;;;;;;4786087;29;20444;-78
2023/11/23 07:38:15;;;;;;;106.78;34.88;;;1.60;99.90;;;;;;4792553;29;22456;-78
2023/11/23 07:40:47;;;;;;;47.65;18.15;;;2.10;99.90;;;;;;4791034;29;20149;-78
2023/11/23 07:43:17;;;;;;;50.20;20.13;;;1.60;99.90;;;;;;4781230;29;20077;-78
2023/11/23 07:45:46;;;;;;;48.80;17.38;;;1.90;99.90;;;;;;4790645;29;20054;-78
2023/11/23 07:48:18;;;;;;;43.35;16.65;;;1.80;99.90;;;;;;4793082;29;20065;-77
2023/11/23 07:50:48;;;;;;;256.40;102.88;;;3.10;99.90;;;;;;4804472;29;20142;-78
2023/11/23 07:53:17;;;;;;;43.17;17.05;;;1.80;99.90;;;;;;4804948;29;20065;-78
2023/11/23 07:55:50;;;;;;;38.67;13.52;;;3.00;99.90;;;;;;4789689;29;20051;-78
2023/11/23 07:58:19;;;;;;;40.45;14.65;;;1.40;99.90;;;;;;4790200;29;20057;-78
2023/11/23 08:00:48;;;;;;;34.00;13.18;;;2.90;99.90;;;;;;4805697;29;20043;-79
2023/11/23 08:03:19;;;;;;;34.83;13.38;;;1.80;99.90;;;;;;4798228;29;20074;-78
2023/11/23 08:05:48;;;;;;;46.10;18.15;;;3.00;99.90;;;;;;4810838;29;20162;-78
2023/11/23 08:08:17;;;;;;;38.80;15.52;;;1.80;99.90;;;;;;4800695;29;20030;-78
2023/11/23 08:10:46;;;;;;;41.00;14.98;;;1.80;99.90;;;;;;4804029;29;20121;-79
2023/11/23 08:13:16;;;;;;;36.83;14.43;;;1.80;99.90;;;;;;4776840;29;20222;-78
2023/11/23 08:15:44;;;;;;;39.38;16.05;;;2.30;99.90;;;;;;4783318;29;20054;-78
2023/11/23 08:18:13;;;;;;;37.97;13.82;;;3.40;99.90;;;;;;4780676;29;20061;-77
2023/11/23 08:20:44;;;;;;;37.17;12.07;;;1.80;99.90;;;;;;4803073;29;20123;-78
2023/11/23 08:23:13;;;;;;;34.40;12.68;;;1.70;99.90;;;;;;4806153;29;20042;-78
2023/11/23 08:25:43;;;;;;;34.20;12.38;;;2.10;99.90;;;;;;4793765;29;20042;-78
2023/11/23 08:28:16;;;;;;;33.22;12.82;;;2.00;99.90;;;;;;4806167;29;20165;-80
2023/11/23 08:30:53;;;;;;;34.13;13.88;;;2.50;99.90;;;;;;4804602;29;20632;-78
2023/11/23 08:33:23;;;;;;;29.40;11.70;;;2.30;99.90;;;;;;4783401;29;20062;-78
2023/11/23 08:35:54;;;;;;;35.83;13.00;;;0.70;99.90;;;;;;4803348;29;20038;-79
2023/11/23 08:38:23;;;;;;;34.90;13.55;;;2.20;99.90;;;;;;4809865;29;20110;-78
2023/11/23 08:40:52;;;;;;;36.78;14.23;;;2.30;99.90;;;;;;4787934;29;20130;-78
2023/11/23 08:43:21;;;;;;;37.92;15.48;;;2.40;99.90;;;;;;4801491;29;20058;-78
2023/11/23 08:45:51;;;;;;;49.20;18.70;;;3.60;99.90;;;;;;4796266;29;20046;-80
2023/11/23 08:48:22;;;;;;;39.15;16.13;;;2.40;99.90;;;;;;4815569;29;20042;-78
2023/11/23 08:50:51;;;;;;;53.83;18.60;;;3.00;99.90;;;;;;4789023;29;20120;-78
2023/11/23 08:53:22;;;;;;;51.22;16.20;;;2.50;99.90;;;;;;4790883;29;20055;-78
2023/11/23 08:55:53;;;;;;;40.03;14.50;;;0.80;99.90;;;;;;4818804;29;20042;-78
2023/11/23 08:58:22;;;;;;;65.22;21.02;;;3.70;99.90;;;;;;4802989;29;20057;-78
2023/11/23 09:00:52;;;;;;;99.68;25.50;;;2.80;99.90;;;;;;4809576;29;20087;-78
2023/11/23 09:03:21;;;;;;;47.55;15.15;;;5.00;99.90;;;;;;4800914;29;20064;-78
2023/11/23 09:05:50;;;;;;;37.38;12.80;;;3.10;99.90;;;;;;4761216;29;20066;-77
2023/11/23 09:08:19;;;;;;;38.38;13.90;;;3.10;99.90;;;;;;4774945;29;20093;-78
2023/11/23 09:10:49;;;;;;;36.28;15.55;;;3.20;99.90;;;;;;4777625;29;20050;-77
2023/11/23 09:13:18;;;;;;;34.42;13.73;;;3.20;99.90;;;;;;4759176;29;20832;-78
2023/11/23 09:15:47;;;;;;;34.10;15.70;;;3.30;99.90;;;;;;4778129;29;20117;-78
2023/11/23 09:18:16;;;;;;;31.80;12.43;;;3.20;99.90;;;;;;4780339;29;20647;-78
2023/11/23 09:20:45;;;;;;;33.65;13.20;;;3.30;99.90;;;;;;4778699;29;20141;-78
2023/11/23 09:23:13;;;;;;;36.17;15.13;;;3.30;99.90;;;;;;4778846;29;20059;-77
2023/11/23 09:25:42;;;;;;;38.65;15.90;;;3.30;99.90;;;;;;4779466;29;20141;-78
2023/11/23 09:28:12;;;;;;;36.63;13.00;;;3.30;99.90;;;;;;4781061;29;20144;-78
2023/11/23 09:30:41;;;;;;;34.95;14.23;;;3.40;99.90;;;;;;4761714;29;21405;-78
2023/11/23 09:33:10;;;;;;;30.45;12.55;;;3.40;99.90;;;;;;4773992;29;20439;-78
2023/11/23 09:35:42;;;;;;;30.15;12.98;;;3.50;99.90;;;;;;4757545;29;21189;-79
2023/11/23 09:38:10;;;;;;;29.25;10.75;;;3.60;99.90;;;;;;4774554;29;20179;-78
2023/11/23 09:40:39;;;;;;;29.75;12.70;;;3.80;99.90;;;;;;4758427;29;20058;-78
2023/11/23 09:43:09;;;;;;;31.92;11.95;;;3.90;99.90;;;;;;4787363;29;22371;-77
2023/11/23 09:45:39;;;;;;;30.90;12.00;;;4.00;99.90;;;;;;4773091;29;20046;-77
2023/11/23 09:48:09;;;;;;;29.73;13.75;;;4.20;99.90;;;;;;4759769;29;20063;-78
2023/11/23 09:50:39;;;;;;;27.33;11.98;;;4.30;99.90;;;;;;4772680;29;20054;-78
2023/11/23 09:53:13;;;;;;;36.58;14.15;;;4.30;99.90;;;;;;4773360;29;20465;-77
2023/11/23 09:55:42;;;;;;;29.33;11.57;;;4.30;99.90;;;;;;4774201;29;20058;-77
2023/11/23 09:58:11;;;;;;;31.08;12.35;;;4.40;99.90;;;;;;4772108;29;20098;-77
2023/11/23 10:00:40;;;;;;;31.63;12.00;;;4.20;99.90;;;;;;4778212;29;20050;-78
2023/11/23 10:03:13;;;;;;;25.80;11.43;;;4.10;99.90;;;;;;4755182;29;20705;-77
2023/11/23 10:05:43;;;;;;;32.55;13.00;;;4.00;99.90;;;;;;4773057;29;20133;-78
2023/11/23 10:08:13;;;;;;;28.25;13.02;;;4.10;99.90;;;;;;4777339;29;20512;-79
2023/11/23 10:10:42;;;;;;;28.02;12.30;;;4.00;99.90;;;;;;4778458;29;20061;-78
2023/11/23 10:13:11;;;;;;;27.23;10.98;;;4.00;99.90;;;;;;4777342;29;20707;-77
2023/11/23 10:15:41;;;;;;;28.30;12.15;;;4.00;99.90;;;;;;4776307;29;20430;-77
2023/11/23 10:18:09;;;;;;;39.22;14.40;;;4.00;99.90;;;;;;4771012;29;20066;-76
2023/11/23 10:20:38;;;;;;;91.53;25.70;;;4.00;99.90;;;;;;4758374;29;20515;-78
2023/11/23 10:23:10;;;;;;;74.38;26.13;;;3.90;99.90;;;;;;4761037;29;20533;-76
2023/11/23 10:25:42;;;;;;;49.23;20.80;;;3.90;99.90;;;;;;4763429;29;20614;-78
2023/11/23 10:28:10;;;;;;;56.30;26.27;;;3.80;99.90;;;;;;4763413;29;20300;-77
2023/11/23 10:30:41;;;;;;;33.88;14.32;;;3.80;99.90;;;;;;4778232;29;20160;-77
2023/11/23 10:33:11;;;;;;;57.33;33.53;;;3.70;99.90;;;;;;4758399;29;20739;-77
2023/11/23 10:35:45;;;;;;;34.08;14.98;;;3.80;99.90;;;;;;4779256;29;20054;-79
2023/11/23 10:38:15;;;;;;;34.58;15.25;;;3.70;99.90;;;;;;4777843;29;20058;-78
2023/11/23 10:40:45;;;;;;;32.15;13.57;;;3.70;99.90;;;;;;4759561;29;20475;-78
2023/11/23 10:43:17;;;;;;;31.70;15.63;;;3.70;99.90;;;;;;4784749;29;20062;-79
2023/11/23 10:45:48;;;;;;;36.70;13.82;;;3.60;99.90;;;;;;4779410;29;20058;-78
2023/11/23 10:48:19;;;;;;;31.02;13.45;;;3.70;99.90;;;;;;4779025;29;20054;-78
2023/11/23 10:50:49;;;;;;;35.65;15.23;;;3.70;99.90;;;;;;4778855;29;20058;-77
2023/11/23 10:53:18;;;;;;;38.92;17.88;;;3.70;99.90;;;;;;4775960;29;20667;-78
2023/11/23 10:55:49;;;;;;;31.65;12.48;;;3.90;99.90;;;;;;4792521;29;20054;-78
2023/11/23 10:58:19;;;;;;;37.72;16.25;;;4.10;99.90;;;;;;4788069;29;20058;-77
2023/11/23 11:00:50;;;;;;;48.42;22.08;;;4.30;99.90;;;;;;4761884;29;20423;-78
2023/11/23 11:03:19;;;;;;;30.40;13.57;;;4.50;99.90;;;;;;4780048;29;20752;-78
2023/11/23 11:05:50;;;;;;;32.55;15.00;;;4.60;99.90;;;;;;4787491;29;20533;-77
2023/11/23 11:08:24;;;;;;;30.02;12.38;;;4.80;99.90;;;;;;4777475;29;20817;-78
2023/11/23 11:10:53;;;;;;;31.75;12.77;;;4.90;99.90;;;;;;4759214;29;20115;-77
2023/11/23 11:13:24;;;;;;;29.33;11.80;;;5.00;99.90;;;;;;4754468;29;20153;-77
2023/11/23 11:15:57;;;;;;;27.60;12.73;;;5.00;99.90;;;;;;4753872;29;22278;-80
2023/11/23 11:18:27;;;;;;;27.85;11.65;;;5.10;99.90;;;;;;4770009;29;20423;-77
2023/11/23 11:21:11;;;;;;;31.75;12.13;;;5.00;99.90;;;;;;4774855;29;20173;-76
2023/11/23 11:23:43;;;;;;;27.98;11.98;;;5.10;99.90;;;;;;4771693;29;20521;-77
2023/11/23 11:26:14;;;;;;;18.37;8.60;;;5.10;99.90;;;;;;4775892;29;20866;-76
2023/11/23 11:28:43;;;;;;;26.55;11.07;;;5.20;99.90;;;;;;4794270;29;20087;-78
2023/11/23 11:31:14;;;;;;;23.88;9.43;;;5.20;99.90;;;;;;4770862;29;20518;-76
2023/11/23 11:33:43;;;;;;;23.23;10.93;;;5.30;99.90;;;;;;4775680;29;20054;-76
2023/11/23 11:36:12;;;;;;;24.83;9.48;;;5.30;99.90;;;;;;4774653;29;20317;-76
2023/11/23 11:38:43;;;;;;;26.00;9.48;;;5.30;99.90;;;;;;4773028;29;20054;-76
2023/11/23 11:41:12;;;;;;;28.77;9.52;;;5.40;99.90;;;;;;4777378;29;20050;-76
2023/11/23 11:43:44;;;;;;;25.42;10.23;;;5.40;99.90;;;;;;4773363;29;20071;-76
2023/11/23 11:46:14;;;;;;;24.83;9.85;;;5.50;99.90;;;;;;4776397;29;20058;-76
2023/11/23 11:48:45;;;;;;;30.88;12.18;;;5.60;99.90;;;;;;4784435;29;20058;-77
2023/11/23 11:51:15;;;;;;;25.58;10.45;;;5.50;99.90;;;;;;4773823;29;20215;-77
2023/11/23 11:53:46;;;;;;;31.13;13.63;;;5.60;99.90;;;;;;4772821;29;20210;-76
2023/11/23 11:56:14;;;;;;;26.45;11.55;;;5.60;99.90;;;;;;4753867;29;20381;-76
2023/11/23 11:58:43;;;;;;;25.80;11.30;;;5.50;99.90;;;;;;4788532;29;20625;-76
2023/11/23 12:01:12;;;;;;;29.02;11.10;;;5.60;99.90;;;;;;4773486;29;20050;-77
2023/11/23 12:03:42;;;;;;;31.88;12.73;;;5.60;99.90;;;;;;4765304;29;20046;-77
2023/11/23 12:06:10;;;;;;;23.35;9.82;;;6.20;99.90;;;;;;4788009;29;20530;-77
2023/11/23 12:08:39;;;;;;;24.08;10.90;;;5.70;99.90;;;;;;4778288;29;20054;-76
2023/11/23 12:11:08;;;;;;;25.80;10.50;;;5.80;99.90;;;;;;4758620;29;20106;-77
2023/11/23 12:13:37;;;;;;;38.13;14.70;;;5.80;99.90;;;;;;4773232;29;20065;-77
2023/11/23 12:16:07;;;;;;;34.30;14.88;;;5.80;99.90;;;;;;4756687;29;20784;-76
2023/11/23 12:18:36;;;;;;;22.95;10.55;;;5.80;99.90;;;;;;4770857;29;20137;-76
2023/11/23 12:21:13;;;;;;;33.42;13.75;;;5.80;99.90;;;;;;4753553;29;20066;-77
2023/11/23 12:23:43;;;;;;;27.45;10.68;;;5.90;99.90;;;;;;4768031;29;20058;-77
2023/11/23 12:26:14;;;;;;;31.83;10.85;;;5.90;99.90;;;;;;4792098;29;20051;-77
2023/11/23 12:28:42;;;;;;;24.02;9.90;;;5.90;99.90;;;;;;4770678;29;20073;-76
2023/11/23 12:31:12;;;;;;;33.30;12.18;;;5.90;99.90;;;;;;4769567;29;20809;-76
2023/11/23 12:33:41;;;;;;;26.00;10.77;;;6.00;99.90;;;;;;4767242;29;20062;-77
2023/11/23 12:36:12;;;;;;;26.45;11.05;;;5.90;99.90;;;;;;4770711;29;20834;-77
2023/11/23 12:38:41;;;;;;;21.27;8.45;;;5.90;99.90;;;;;;4749204;29;20057;-76
2023/11/23 12:41:09;;;;;;;23.90;10.10;;;6.00;99.90;;;;;;4768217;29;20702;-77
2023/11/23 12:43:39;;;;;;;24.38;9.48;;;6.00;99.90;;;;;;4768695;29;20066;-77
2023/11/23 12:46:08;;;;;;;25.30;10.15;;;6.00;99.90;;;;;;4774304;29;20054;-76
2023/11/23 12:48:37;;;;;;;19.30;8.32;;;6.00;99.90;;;;;;4759175;29;20047;-76
2023/11/23 12:51:06;;;;;;;23.92;10.13;;;6.00;99.90;;;;;;4750684;29;20416;-78